sensor_id;sensor_type;location;lat;lon;timestamp;P1;durP1;ratioP1;P2;durP2;ratioP2
17741;SDS011;8993;51.822;-2.268;2023-06-26T00:03:36;8.46;;;1.81;;
17741;SDS011;8993;51.822;-2.268;2023-06-26T00:08:41;9.14;;;2.07;;
17741;SDS011;8993;51.822;-2.268;2023-06-26T00:13:45;11.38;;;2.35;;
17741;SDS011;8993;51.822;-2.268;2023-06-26T00:18:50;8.71;;;1.97;;
17741;SDS011;8993;51.822;-2.268;2023-06-26T00:23:53;10.83;;;2.36;;
17741;SDS011;8993;51.822;-2.268;2023-06-26T00:28:58;10.23;;;2.16;;
17741;SDS011;8993;51.822;-2.268;2023-06-26T00:34:02;11.51;;;2.22;;
17741;SDS011;8993;51.822;-2.268;2023-06-26T00:39:06;8.70;;;1.96;;
17741;SDS011;8993;51.822;-2.268;2023-06-26T00:44:10;8.83;;;1.88;;
17741;SDS011;8993;51.822;-2.268;2023-06-26T00:49:14;8.58;;;1.74;;
17741;SDS011;8993;51.822;-2.268;2023-06-26T00:54:19;8.33;;;1.96;;
17741;SDS011;8993;51.822;-2.268;2023-06-26T00:59:23;8.79;;;2.07;;
17741;SDS011;8993;51.822;-2.268;2023-06-26T01:04:27;10.20;;;1.97;;
17741;SDS011;8993;51.822;-2.268;2023-06-26T01:09:31;8.91;;;1.92;;
17741;SDS011;8993;51.822;-2.268;2023-06-26T01:14:36;8.92;;;2.04;;
17741;SDS011;8993;51.822;-2.268;2023-06-26T01:19:40;8.17;;;1.92;;
17741;SDS011;8993;51.822;-2.268;2023-06-26T01:24:47;11.46;;;2.27;;
17741;SDS011;8993;51.822;-2.268;2023-06-26T01:29:49;11.99;;;2.01;;
17741;SDS011;8993;51.822;-2.268;2023-06-26T01:34:53;10.28;;;1.96;;
17741;SDS011;8993;51.822;-2.268;2023-06-26T01:39:57;9.08;;;2.01;;
17741;SDS011;8993;51.822;-2.268;2023-06-26T01:50:09;11.32;;;2.02;;
17741;SDS011;8993;51.822;-2.268;2023-06-26T01:55:12;11.16;;;2.36;;
17741;SDS011;8993;51.822;-2.268;2023-06-26T02:05:24;6.95;;;1.77;;
17741;SDS011;8993;51.822;-2.268;2023-06-26T02:10:29;12.16;;;2.23;;
17741;SDS011;8993;51.822;-2.268;2023-06-26T02:15:33;9.96;;;1.79;;
17741;SDS011;8993;51.822;-2.268;2023-06-26T02:20:39;9.74;;;2.09;;
17741;SDS011;8993;51.822;-2.268;2023-06-26T02:25:43;10.24;;;2.27;;
17741;SDS011;8993;51.822;-2.268;2023-06-26T02:30:50;9.99;;;1.99;;
17741;SDS011;8993;51.822;-2.268;2023-06-26T02:35:54;8.48;;;1.77;;
17741;SDS011;8993;51.822;-2.268;2023-06-26T02:40:59;9.73;;;2.14;;
17741;SDS011;8993;51.822;-2.268;2023-06-26T02:46:04;8.70;;;1.90;;
17741;SDS011;8993;51.822;-2.268;2023-06-26T02:51:08;8.98;;;1.87;;
17741;SDS011;8993;51.822;-2.268;2023-06-26T02:56:14;7.08;;;1.79;;
17741;SDS011;8993;51.822;-2.268;2023-06-26T03:01:21;12.91;;;2.32;;
17741;SDS011;8993;51.822;-2.268;2023-06-26T03:06:26;10.37;;;2.09;;
17741;SDS011;8993;51.822;-2.268;2023-06-26T03:11:31;12.93;;;2.37;;
17741;SDS011;8993;51.822;-2.268;2023-06-26T03:16:35;13.66;;;2.29;;
17741;SDS011;8993;51.822;-2.268;2023-06-26T03:21:40;10.54;;;2.05;;
17741;SDS011;8993;51.822;-2.268;2023-06-26T03:26:44;11.56;;;2.15;;
17741;SDS011;8993;51.822;-2.268;2023-06-26T03:31:49;9.93;;;2.14;;
17741;SDS011;8993;51.822;-2.268;2023-06-26T03:36:57;11.16;;;1.93;;
17741;SDS011;8993;51.822;-2.268;2023-06-26T03:42:02;11.01;;;2.00;;
17741;SDS011;8993;51.822;-2.268;2023-06-26T03:47:06;7.96;;;1.93;;
17741;SDS011;8993;51.822;-2.268;2023-06-26T03:52:10;16.11;;;2.44;;
17741;SDS011;8993;51.822;-2.268;2023-06-26T03:57:14;12.34;;;2.44;;
17741;SDS011;8993;51.822;-2.268;2023-06-26T04:02:24;12.35;;;2.42;;
17741;SDS011;8993;51.822;-2.268;2023-06-26T04:07:28;13.99;;;2.46;;
17741;SDS011;8993;51.822;-2.268;2023-06-26T04:12:32;12.45;;;2.44;;
17741;SDS011;8993;51.822;-2.268;2023-06-26T04:17:37;12.14;;;2.30;;
17741;SDS011;8993;51.822;-2.268;2023-06-26T04:22:41;12.37;;;2.21;;
17741;SDS011;8993;51.822;-2.268;2023-06-26T04:27:45;10.86;;;2.16;;
17741;SDS011;8993;51.822;-2.268;2023-06-26T04:32:49;12.55;;;2.21;;
17741;SDS011;8993;51.822;-2.268;2023-06-26T04:37:54;11.71;;;2.01;;
17741;SDS011;8993;51.822;-2.268;2023-06-26T04:42:58;12.10;;;2.12;;
17741;SDS011;8993;51.822;-2.268;2023-06-26T04:48:03;10.73;;;2.00;;
17741;SDS011;8993;51.822;-2.268;2023-06-26T04:53:07;11.24;;;2.05;;
17741;SDS011;8993;51.822;-2.268;2023-06-26T04:58:12;10.99;;;1.91;;
17741;SDS011;8993;51.822;-2.268;2023-06-26T05:03:16;10.50;;;1.90;;
17741;SDS011;8993;51.822;-2.268;2023-06-26T05:08:21;10.43;;;1.83;;
17741;SDS011;8993;51.822;-2.268;2023-06-26T05:13:25;11.46;;;1.86;;
17741;SDS011;8993;51.822;-2.268;2023-06-26T05:18:29;9.38;;;1.80;;
17741;SDS011;8993;51.822;-2.268;2023-06-26T05:23:34;10.36;;;1.92;;
17741;SDS011;8993;51.822;-2.268;2023-06-26T05:28:38;9.66;;;1.54;;
17741;SDS011;8993;51.822;-2.268;2023-06-26T05:33:44;10.84;;;1.68;;
17741;SDS011;8993;51.822;-2.268;2023-06-26T05:38:48;8.77;;;1.62;;
17741;SDS011;8993;51.822;-2.268;2023-06-26T05:43:52;9.14;;;1.52;;
17741;SDS011;8993;51.822;-2.268;2023-06-26T05:48:57;8.66;;;1.34;;
17741;SDS011;8993;51.822;-2.268;2023-06-26T05:54:01;8.93;;;1.25;;
17741;SDS011;8993;51.822;-2.268;2023-06-26T05:59:05;9.82;;;1.33;;
17741;SDS011;8993;51.822;-2.268;2023-06-26T06:04:10;8.69;;;1.42;;
17741;SDS011;8993;51.822;-2.268;2023-06-26T06:09:14;9.39;;;1.21;;
17741;SDS011;8993;51.822;-2.268;2023-06-26T06:14:19;7.29;;;1.39;;
17741;SDS011;8993;51.822;-2.268;2023-06-26T06:19:24;8.13;;;1.43;;
17741;SDS011;8993;51.822;-2.268;2023-06-26T06:24:28;6.12;;;1.20;;
17741;SDS011;8993;51.822;-2.268;2023-06-26T06:29:33;7.01;;;1.15;;
17741;SDS011;8993;51.822;-2.268;2023-06-26T06:34:37;9.30;;;1.33;;
17741;SDS011;8993;51.822;-2.268;2023-06-26T06:39:45;6.70;;;1.20;;
17741;SDS011;8993;51.822;-2.268;2023-06-26T06:44:50;7.98;;;1.26;;
17741;SDS011;8993;51.822;-2.268;2023-06-26T06:49:54;5.75;;;1.06;;
17741;SDS011;8993;51.822;-2.268;2023-06-26T06:54:58;6.75;;;1.02;;
17741;SDS011;8993;51.822;-2.268;2023-06-26T07:00:03;5.98;;;1.06;;
17741;SDS011;8993;51.822;-2.268;2023-06-26T07:05:08;7.03;;;0.92;;
17741;SDS011;8993;51.822;-2.268;2023-06-26T07:10:12;5.73;;;0.84;;
17741;SDS011;8993;51.822;-2.268;2023-06-26T07:15:16;7.26;;;0.94;;
17741;SDS011;8993;51.822;-2.268;2023-06-26T07:20:20;6.97;;;0.97;;
17741;SDS011;8993;51.822;-2.268;2023-06-26T07:25:25;6.90;;;0.96;;
17741;SDS011;8993;51.822;-2.268;2023-06-26T07:30:29;8.11;;;1.04;;
17741;SDS011;8993;51.822;-2.268;2023-06-26T07:35:35;4.90;;;1.04;;
17741;SDS011;8993;51.822;-2.268;2023-06-26T07:40:39;6.24;;;0.96;;
17741;SDS011;8993;51.822;-2.268;2023-06-26T07:45:44;5.13;;;0.86;;
17741;SDS011;8993;51.822;-2.268;2023-06-26T07:50:48;5.27;;;0.80;;
17741;SDS011;8993;51.822;-2.268;2023-06-26T07:55:53;4.84;;;0.80;;
17741;SDS011;8993;51.822;-2.268;2023-06-26T08:00:58;5.23;;;0.87;;
17741;SDS011;8993;51.822;-2.268;2023-06-26T08:06:03;7.57;;;1.00;;
17741;SDS011;8993;51.822;-2.268;2023-06-26T08:11:07;5.06;;;0.83;;
17741;SDS011;8993;51.822;-2.268;2023-06-26T08:16:11;6.04;;;1.04;;
17741;SDS011;8993;51.822;-2.268;2023-06-26T08:21:15;4.85;;;0.88;;
17741;SDS011;8993;51.822;-2.268;2023-06-26T08:26:21;8.29;;;1.01;;
17741;SDS011;8993;51.822;-2.268;2023-06-26T08:31:25;7.49;;;0.91;;
17741;SDS011;8993;51.822;-2.268;2023-06-26T08:36:31;5.93;;;0.89;;
17741;SDS011;8993;51.822;-2.268;2023-06-26T08:41:35;6.71;;;0.92;;
17741;SDS011;8993;51.822;-2.268;2023-06-26T08:46:39;4.72;;;0.75;;
17741;SDS011;8993;51.822;-2.268;2023-06-26T08:51:45;5.27;;;0.85;;
17741;SDS011;8993;51.822;-2.268;2023-06-26T08:56:48;5.94;;;0.75;;
17741;SDS011;8993;51.822;-2.268;2023-06-26T09:01:53;3.92;;;0.85;;
17741;SDS011;8993;51.822;-2.268;2023-06-26T09:06:59;4.91;;;0.81;;
17741;SDS011;8993;51.822;-2.268;2023-06-26T09:12:03;5.45;;;0.86;;
17741;SDS011;8993;51.822;-2.268;2023-06-26T09:17:07;4.62;;;0.68;;
17741;SDS011;8993;51.822;-2.268;2023-06-26T09:22:11;4.76;;;0.89;;
17741;SDS011;8993;51.822;-2.268;2023-06-26T09:27:15;5.77;;;0.75;;
17741;SDS011;8993;51.822;-2.268;2023-06-26T09:32:23;4.29;;;0.72;;
17741;SDS011;8993;51.822;-2.268;2023-06-26T09:37:26;5.11;;;0.83;;
17741;SDS011;8993;51.822;-2.268;2023-06-26T09:42:31;5.86;;;0.84;;
17741;SDS011;8993;51.822;-2.268;2023-06-26T09:47:35;4.91;;;0.69;;
17741;SDS011;8993;51.822;-2.268;2023-06-26T09:52:40;5.25;;;0.70;;
17741;SDS011;8993;51.822;-2.268;2023-06-26T09:57:45;6.51;;;0.69;;
17741;SDS011;8993;51.822;-2.268;2023-06-26T10:02:50;5.00;;;0.81;;
17741;SDS011;8993;51.822;-2.268;2023-06-26T10:07:54;4.26;;;0.72;;
17741;SDS011;8993;51.822;-2.268;2023-06-26T10:12:59;3.88;;;0.61;;
17741;SDS011;8993;51.822;-2.268;2023-06-26T10:18:03;4.81;;;0.67;;
17741;SDS011;8993;51.822;-2.268;2023-06-26T10:23:08;4.02;;;0.58;;
17741;SDS011;8993;51.822;-2.268;2023-06-26T10:28:12;4.82;;;0.86;;
17741;SDS011;8993;51.822;-2.268;2023-06-26T10:33:18;5.18;;;0.66;;
17741;SDS011;8993;51.822;-2.268;2023-06-26T10:38:22;3.13;;;0.57;;
17741;SDS011;8993;51.822;-2.268;2023-06-26T10:43:29;3.76;;;0.67;;
17741;SDS011;8993;51.822;-2.268;2023-06-26T10:48:31;4.02;;;0.71;;
17741;SDS011;8993;51.822;-2.268;2023-06-26T10:53:36;5.71;;;0.64;;
17741;SDS011;8993;51.822;-2.268;2023-06-26T10:58:41;3.57;;;0.63;;
17741;SDS011;8993;51.822;-2.268;2023-06-26T11:03:45;3.15;;;0.56;;
17741;SDS011;8993;51.822;-2.268;2023-06-26T11:08:50;3.71;;;0.64;;
17741;SDS011;8993;51.822;-2.268;2023-06-26T11:13:54;4.44;;;0.69;;
17741;SDS011;8993;51.822;-2.268;2023-06-26T11:18:58;4.24;;;0.75;;
17741;SDS011;8993;51.822;-2.268;2023-06-26T11:24:02;5.02;;;0.75;;
17741;SDS011;8993;51.822;-2.268;2023-06-26T11:29:07;4.57;;;0.73;;
17741;SDS011;8993;51.822;-2.268;2023-06-26T11:34:11;5.84;;;0.85;;
17741;SDS011;8993;51.822;-2.268;2023-06-26T11:39:15;5.49;;;0.82;;
17741;SDS011;8993;51.822;-2.268;2023-06-26T11:44:19;4.07;;;0.69;;
17741;SDS011;8993;51.822;-2.268;2023-06-26T11:49:24;3.31;;;0.67;;
17741;SDS011;8993;51.822;-2.268;2023-06-26T11:54:28;3.75;;;0.63;;
17741;SDS011;8993;51.822;-2.268;2023-06-26T11:59:33;2.71;;;0.55;;
17741;SDS011;8993;51.822;-2.268;2023-06-26T12:04:40;3.98;;;0.69;;
17741;SDS011;8993;51.822;-2.268;2023-06-26T12:09:42;4.04;;;0.68;;
17741;SDS011;8993;51.822;-2.268;2023-06-26T12:14:47;2.85;;;0.66;;
17741;SDS011;8993;51.822;-2.268;2023-06-26T12:19:52;4.11;;;0.65;;
17741;SDS011;8993;51.822;-2.268;2023-06-26T12:24:56;3.13;;;0.60;;
17741;SDS011;8993;51.822;-2.268;2023-06-26T12:30:02;3.45;;;0.60;;
17741;SDS011;8993;51.822;-2.268;2023-06-26T12:35:05;2.74;;;0.64;;
17741;SDS011;8993;51.822;-2.268;2023-06-26T12:40:16;3.86;;;0.57;;
17741;SDS011;8993;51.822;-2.268;2023-06-26T12:45:14;3.67;;;0.69;;
17741;SDS011;8993;51.822;-2.268;2023-06-26T12:50:18;4.23;;;0.66;;
17741;SDS011;8993;51.822;-2.268;2023-06-26T12:55:22;4.16;;;0.65;;
17741;SDS011;8993;51.822;-2.268;2023-06-26T13:00:26;4.31;;;0.60;;
17741;SDS011;8993;51.822;-2.268;2023-06-26T13:05:30;4.57;;;0.72;;
17741;SDS011;8993;51.822;-2.268;2023-06-26T13:10:35;3.49;;;0.69;;
17741;SDS011;8993;51.822;-2.268;2023-06-26T13:15:39;2.87;;;0.65;;
17741;SDS011;8993;51.822;-2.268;2023-06-26T13:20:43;3.11;;;0.56;;
17741;SDS011;8993;51.822;-2.268;2023-06-26T13:25:47;3.72;;;0.65;;
17741;SDS011;8993;51.822;-2.268;2023-06-26T13:30:52;3.22;;;0.68;;
17741;SDS011;8993;51.822;-2.268;2023-06-26T13:35:56;3.03;;;0.66;;
17741;SDS011;8993;51.822;-2.268;2023-06-26T13:41:01;2.73;;;0.61;;
17741;SDS011;8993;51.822;-2.268;2023-06-26T13:46:05;2.93;;;0.61;;
17741;SDS011;8993;51.822;-2.268;2023-06-26T13:51:09;5.26;;;0.67;;
17741;SDS011;8993;51.822;-2.268;2023-06-26T13:56:13;3.24;;;0.63;;
17741;SDS011;8993;51.822;-2.268;2023-06-26T14:01:19;3.47;;;0.64;;
17741;SDS011;8993;51.822;-2.268;2023-06-26T14:06:22;4.31;;;0.72;;
17741;SDS011;8993;51.822;-2.268;2023-06-26T14:11:26;5.09;;;0.74;;
17741;SDS011;8993;51.822;-2.268;2023-06-26T14:16:31;2.87;;;0.65;;
17741;SDS011;8993;51.822;-2.268;2023-06-26T14:21:35;4.62;;;0.79;;
17741;SDS011;8993;51.822;-2.268;2023-06-26T14:26:39;3.31;;;0.66;;
17741;SDS011;8993;51.822;-2.268;2023-06-26T14:31:44;3.64;;;0.66;;
17741;SDS011;8993;51.822;-2.268;2023-06-26T14:36:48;3.15;;;0.76;;
17741;SDS011;8993;51.822;-2.268;2023-06-26T14:41:53;3.84;;;0.81;;
17741;SDS011;8993;51.822;-2.268;2023-06-26T14:46:57;4.19;;;0.75;;
17741;SDS011;8993;51.822;-2.268;2023-06-26T14:52:01;3.19;;;0.68;;
17741;SDS011;8993;51.822;-2.268;2023-06-26T14:57:08;2.00;;;0.52;;
17741;SDS011;8993;51.822;-2.268;2023-06-26T15:02:12;2.10;;;0.60;;
17741;SDS011;8993;51.822;-2.268;2023-06-26T15:07:16;4.83;;;0.82;;
17741;SDS011;8993;51.822;-2.268;2023-06-26T15:12:20;4.92;;;1.00;;
17741;SDS011;8993;51.822;-2.268;2023-06-26T15:17:25;2.76;;;0.59;;
17741;SDS011;8993;51.822;-2.268;2023-06-26T15:22:29;2.72;;;0.58;;
17741;SDS011;8993;51.822;-2.268;2023-06-26T15:27:33;2.41;;;0.52;;
17741;SDS011;8993;51.822;-2.268;2023-06-26T15:32:37;3.70;;;0.62;;
17741;SDS011;8993;51.822;-2.268;2023-06-26T15:37:42;1.90;;;0.53;;
17741;SDS011;8993;51.822;-2.268;2023-06-26T15:42:46;3.47;;;0.64;;
17741;SDS011;8993;51.822;-2.268;2023-06-26T15:47:51;3.11;;;0.75;;
17741;SDS011;8993;51.822;-2.268;2023-06-26T15:52:53;4.07;;;1.38;;
17741;SDS011;8993;51.822;-2.268;2023-06-26T15:57:58;3.99;;;0.76;;
17741;SDS011;8993;51.822;-2.268;2023-06-26T16:03:02;3.03;;;0.62;;
17741;SDS011;8993;51.822;-2.268;2023-06-26T16:08:06;4.69;;;1.16;;
17741;SDS011;8993;51.822;-2.268;2023-06-26T16:13:10;2.54;;;0.71;;
17741;SDS011;8993;51.822;-2.268;2023-06-26T16:18:14;4.43;;;0.75;;
17741;SDS011;8993;51.822;-2.268;2023-06-26T16:23:18;3.35;;;0.70;;
17741;SDS011;8993;51.822;-2.268;2023-06-26T16:28:22;4.49;;;0.70;;
17741;SDS011;8993;51.822;-2.268;2023-06-26T16:33:26;3.86;;;0.68;;
17741;SDS011;8993;51.822;-2.268;2023-06-26T16:38:30;3.92;;;0.81;;
17741;SDS011;8993;51.822;-2.268;2023-06-26T16:43:34;3.85;;;0.67;;
17741;SDS011;8993;51.822;-2.268;2023-06-26T16:48:38;5.19;;;0.75;;
17741;SDS011;8993;51.822;-2.268;2023-06-26T16:53:42;3.99;;;0.65;;
17741;SDS011;8993;51.822;-2.268;2023-06-26T16:58:48;4.64;;;0.72;;
17741;SDS011;8993;51.822;-2.268;2023-06-26T17:03:52;6.08;;;0.84;;
17741;SDS011;8993;51.822;-2.268;2023-06-26T17:08:56;3.64;;;0.78;;
17741;SDS011;8993;51.822;-2.268;2023-06-26T17:14:00;5.35;;;0.91;;
17741;SDS011;8993;51.822;-2.268;2023-06-26T17:19:05;4.88;;;0.88;;
17741;SDS011;8993;51.822;-2.268;2023-06-26T17:24:09;5.68;;;0.99;;
17741;SDS011;8993;51.822;-2.268;2023-06-26T17:29:13;7.34;;;0.97;;
17741;SDS011;8993;51.822;-2.268;2023-06-26T17:34:18;5.79;;;0.96;;
17741;SDS011;8993;51.822;-2.268;2023-06-26T17:39:22;7.17;;;1.09;;
17741;SDS011;8993;51.822;-2.268;2023-06-26T17:44:26;5.57;;;1.02;;
17741;SDS011;8993;51.822;-2.268;2023-06-26T17:49:31;6.70;;;0.94;;
17741;SDS011;8993;51.822;-2.268;2023-06-26T17:54:35;4.31;;;0.80;;
17741;SDS011;8993;51.822;-2.268;2023-06-26T17:59:39;6.13;;;0.83;;
17741;SDS011;8993;51.822;-2.268;2023-06-26T18:04:43;5.77;;;0.88;;
17741;SDS011;8993;51.822;-2.268;2023-06-26T18:09:48;7.76;;;1.03;;
17741;SDS011;8993;51.822;-2.268;2023-06-26T18:14:52;5.03;;;1.06;;
17741;SDS011;8993;51.822;-2.268;2023-06-26T18:19:56;5.11;;;1.02;;
17741;SDS011;8993;51.822;-2.268;2023-06-26T18:25:00;5.00;;;0.97;;
17741;SDS011;8993;51.822;-2.268;2023-06-26T18:30:04;7.11;;;1.06;;
17741;SDS011;8993;51.822;-2.268;2023-06-26T18:35:08;5.54;;;0.95;;
17741;SDS011;8993;51.822;-2.268;2023-06-26T18:40:12;5.98;;;1.00;;
17741;SDS011;8993;51.822;-2.268;2023-06-26T18:45:16;6.58;;;1.07;;
17741;SDS011;8993;51.822;-2.268;2023-06-26T18:50:20;6.04;;;1.05;;
17741;SDS011;8993;51.822;-2.268;2023-06-26T18:55:24;5.74;;;1.06;;
17741;SDS011;8993;51.822;-2.268;2023-06-26T19:00:28;4.96;;;0.88;;
17741;SDS011;8993;51.822;-2.268;2023-06-26T19:05:32;6.40;;;1.07;;
17741;SDS011;8993;51.822;-2.268;2023-06-26T19:10:37;6.48;;;1.25;;
17741;SDS011;8993;51.822;-2.268;2023-06-26T19:15:41;6.79;;;1.15;;
17741;SDS011;8993;51.822;-2.268;2023-06-26T19:20:48;8.54;;;1.52;;
17741;SDS011;8993;51.822;-2.268;2023-06-26T19:25:52;5.97;;;1.24;;
17741;SDS011;8993;51.822;-2.268;2023-06-26T19:30:56;7.99;;;1.36;;
17741;SDS011;8993;51.822;-2.268;2023-06-26T19:36:00;6.88;;;1.24;;
17741;SDS011;8993;51.822;-2.268;2023-06-26T19:41:05;6.14;;;1.03;;
17741;SDS011;8993;51.822;-2.268;2023-06-26T19:46:10;7.89;;;1.21;;
17741;SDS011;8993;51.822;-2.268;2023-06-26T19:51:14;6.13;;;0.99;;
17741;SDS011;8993;51.822;-2.268;2023-06-26T19:56:19;7.89;;;1.13;;
17741;SDS011;8993;51.822;-2.268;2023-06-26T20:01:23;8.16;;;1.24;;
17741;SDS011;8993;51.822;-2.268;2023-06-26T20:06:27;9.12;;;1.23;;
17741;SDS011;8993;51.822;-2.268;2023-06-26T20:11:32;7.78;;;1.28;;
17741;SDS011;8993;51.822;-2.268;2023-06-26T20:16:36;5.73;;;1.13;;
17741;SDS011;8993;51.822;-2.268;2023-06-26T20:21:41;7.20;;;1.11;;
17741;SDS011;8993;51.822;-2.268;2023-06-26T20:26:45;6.71;;;1.33;;
17741;SDS011;8993;51.822;-2.268;2023-06-26T20:31:49;8.02;;;1.40;;
17741;SDS011;8993;51.822;-2.268;2023-06-26T20:36:54;9.15;;;1.64;;
17741;SDS011;8993;51.822;-2.268;2023-06-26T20:41:58;7.45;;;1.45;;
17741;SDS011;8993;51.822;-2.268;2023-06-26T20:47:02;7.36;;;1.29;;
17741;SDS011;8993;51.822;-2.268;2023-06-26T20:52:07;7.88;;;1.46;;
17741;SDS011;8993;51.822;-2.268;2023-06-26T20:57:10;7.14;;;1.56;;
17741;SDS011;8993;51.822;-2.268;2023-06-26T21:02:14;7.13;;;1.36;;
17741;SDS011;8993;51.822;-2.268;2023-06-26T21:07:18;7.43;;;1.51;;
17741;SDS011;8993;51.822;-2.268;2023-06-26T21:12:22;9.52;;;1.58;;
17741;SDS011;8993;51.822;-2.268;2023-06-26T21:17:27;7.59;;;1.52;;
17741;SDS011;8993;51.822;-2.268;2023-06-26T21:22:31;9.84;;;1.59;;
17741;SDS011;8993;51.822;-2.268;2023-06-26T21:27:35;8.08;;;1.50;;
17741;SDS011;8993;51.822;-2.268;2023-06-26T21:32:39;10.40;;;1.48;;
17741;SDS011;8993;51.822;-2.268;2023-06-26T21:37:43;8.45;;;1.55;;
17741;SDS011;8993;51.822;-2.268;2023-06-26T21:42:47;9.47;;;1.67;;
17741;SDS011;8993;51.822;-2.268;2023-06-26T21:47:51;11.09;;;1.67;;
17741;SDS011;8993;51.822;-2.268;2023-06-26T21:52:55;8.40;;;1.48;;
17741;SDS011;8993;51.822;-2.268;2023-06-26T21:57:59;6.93;;;1.45;;
17741;SDS011;8993;51.822;-2.268;2023-06-26T22:03:03;8.31;;;1.39;;
17741;SDS011;8993;51.822;-2.268;2023-06-26T22:08:07;8.82;;;1.56;;
17741;SDS011;8993;51.822;-2.268;2023-06-26T22:13:11;10.38;;;1.79;;
17741;SDS011;8993;51.822;-2.268;2023-06-26T22:18:16;8.09;;;1.79;;
17741;SDS011;8993;51.822;-2.268;2023-06-26T22:23:20;9.48;;;2.34;;
17741;SDS011;8993;51.822;-2.268;2023-06-26T22:28:24;17.68;;;6.08;;
17741;SDS011;8993;51.822;-2.268;2023-06-26T22:33:28;17.06;;;6.41;;
17741;SDS011;8993;51.822;-2.268;2023-06-26T22:38:34;19.57;;;6.81;;
17741;SDS011;8993;51.822;-2.268;2023-06-26T22:48:45;17.95;;;6.60;;
17741;SDS011;8993;51.822;-2.268;2023-06-26T22:53:49;19.15;;;6.24;;
17741;SDS011;8993;51.822;-2.268;2023-06-26T22:58:54;16.14;;;4.69;;
17741;SDS011;8993;51.822;-2.268;2023-06-26T23:03:58;13.17;;;3.28;;
17741;SDS011;8993;51.822;-2.268;2023-06-26T23:09:02;15.19;;;3.24;;
17741;SDS011;8993;51.822;-2.268;2023-06-26T23:14:07;13.25;;;2.83;;
17741;SDS011;8993;51.822;-2.268;2023-06-26T23:19:11;14.00;;;2.85;;
17741;SDS011;8993;51.822;-2.268;2023-06-26T23:24:16;10.48;;;2.27;;
17741;SDS011;8993;51.822;-2.268;2023-06-26T23:29:21;11.35;;;2.27;;
17741;SDS011;8993;51.822;-2.268;2023-06-26T23:34:25;11.16;;;2.21;;
17741;SDS011;8993;51.822;-2.268;2023-06-26T23:39:29;8.26;;;1.87;;
17741;SDS011;8993;51.822;-2.268;2023-06-26T23:44:34;10.31;;;2.00;;
17741;SDS011;8993;51.822;-2.268;2023-06-26T23:49:38;11.57;;;2.13;;
17741;SDS011;8993;51.822;-2.268;2023-06-26T23:54:43;9.89;;;2.12;;
17741;SDS011;8993;51.822;-2.268;2023-06-26T23:59:46;11.20;;;1.97;;
